createdAt,value
2023-03-24T00:00:26.641Z,4.80
2023-03-24T00:04:28.997Z,4.07
2023-03-24T00:08:35.186Z,4.30
2023-03-24T00:12:38.303Z,4.03
2023-03-24T00:16:45.188Z,4.97
2023-03-24T00:20:47.126Z,4.77
2023-03-24T00:24:49.122Z,5.07
2023-03-24T00:28:51.128Z,5.17
2023-03-24T00:32:52.881Z,4.60
2023-03-24T00:36:54.512Z,4.70
2023-03-24T00:40:56.361Z,4.50
2023-03-24T00:44:58.112Z,6.10
2023-03-24T00:49:03.091Z,4.50
2023-03-24T00:53:04.991Z,4.43
2023-03-24T00:57:08.436Z,4.20
2023-03-24T01:01:10.347Z,4.70
2023-03-24T01:05:12.058Z,4.30
2023-03-24T01:09:13.539Z,4.10
2023-03-24T01:13:17.536Z,4.20
2023-03-24T01:17:21.999Z,4.30
2023-03-24T01:21:24.947Z,4.50
2023-03-24T01:25:27.598Z,4.30
2023-03-24T01:29:29.320Z,4.40
2023-03-24T01:33:30.478Z,4.57
2023-03-24T01:37:32.442Z,4.53
2023-03-24T01:41:37.379Z,4.67
2023-03-24T01:45:42.835Z,4.87
2023-03-24T01:49:51.081Z,5.60
2023-03-24T01:53:59.605Z,4.90
2023-03-24T01:58:02.821Z,5.00
2023-03-24T02:02:06.025Z,5.00
2023-03-24T02:06:08.379Z,4.50
2023-03-24T02:10:15.697Z,4.50
2023-03-24T02:14:17.657Z,4.90
2023-03-24T02:18:42.706Z,5.60
2023-03-24T02:23:13.998Z,4.10
2023-03-24T02:27:43.574Z,5.07
2023-03-24T02:32:01.419Z,5.10
2023-03-24T02:36:40.544Z,4.70
2023-03-24T02:40:58.289Z,5.20
2023-03-24T02:45:12.907Z,4.70
2023-03-24T02:49:48.607Z,4.83
2023-03-24T02:54:17.019Z,5.50
2023-03-24T02:58:25.459Z,5.40
2023-03-24T03:02:31.142Z,5.27
2023-03-24T03:06:36.567Z,6.07
2023-03-24T03:10:41.990Z,5.50
2023-03-24T03:14:56.432Z,5.63
2023-03-24T03:19:04.649Z,5.50
2023-03-24T03:23:12.820Z,5.70
2023-03-24T03:27:18.580Z,5.77
2023-03-24T03:31:23.828Z,5.77
2023-03-24T03:35:38.204Z,4.97
2023-03-24T03:39:49.898Z,4.63
2023-03-24T03:43:52.561Z,4.40
2023-03-24T03:47:54.284Z,4.43
2023-03-24T03:51:56.777Z,4.13
2023-03-24T03:55:58.644Z,4.30
2023-03-24T04:00:11.630Z,4.13
2023-03-24T04:04:21.193Z,4.13
2023-03-24T04:08:50.674Z,4.57
2023-03-24T04:13:10.885Z,4.07
2023-03-24T04:17:36.878Z,5.20
2023-03-24T04:21:42.463Z,5.77
2023-03-24T04:26:06.287Z,6.07
2023-03-24T04:30:26.223Z,7.10
2023-03-24T04:34:48.841Z,6.17
2023-03-24T04:38:54.402Z,6.30
2023-03-24T04:43:00.643Z,6.30
2023-03-24T04:47:04.585Z,5.97
2023-03-24T04:51:08.671Z,6.90
2023-03-24T04:55:43.468Z,7.23
2023-03-24T04:59:45.815Z,6.50
2023-03-24T05:03:47.967Z,6.63
2023-03-24T05:07:49.776Z,7.00
2023-03-24T05:11:51.370Z,7.53
2023-03-24T05:15:53.567Z,8.40
2023-03-24T05:19:54.714Z,8.60
2023-03-24T05:23:55.781Z,8.80
2023-03-24T05:27:57.038Z,8.30
2023-03-24T05:31:58.233Z,7.30
2023-03-24T05:35:59.437Z,7.20
2023-03-24T05:40:00.628Z,6.90
2023-03-24T05:44:01.753Z,6.63
2023-03-24T05:48:03.233Z,7.00
2023-03-24T05:52:05.316Z,6.03
2023-03-24T05:56:09.283Z,6.60
2023-03-24T06:00:13.583Z,7.30
2023-03-24T06:04:14.794Z,6.20
2023-03-24T06:08:16.363Z,6.13
2023-03-24T06:12:19.869Z,5.83
2023-03-24T06:16:22.880Z,5.20
2023-03-24T06:20:24.092Z,5.70
2023-03-24T06:24:26.751Z,6.30
2023-03-24T06:28:29.731Z,5.57
2023-03-24T06:32:30.920Z,5.67
2023-03-24T06:36:34.059Z,5.53
2023-03-24T06:40:35.317Z,4.90
2023-03-24T06:44:36.977Z,5.17
2023-03-24T06:48:38.485Z,4.23
2023-03-24T06:52:41.656Z,4.70
2023-03-24T06:56:43.871Z,4.50
2023-03-24T07:00:47.594Z,4.30
2023-03-24T07:04:49.721Z,4.03
2023-03-24T07:08:51.599Z,4.13
2023-03-24T07:12:52.745Z,3.60
2023-03-24T07:16:53.915Z,4.10
2023-03-24T07:20:55.071Z,3.47
2023-03-24T07:24:57.429Z,3.70
2023-03-24T07:28:58.597Z,3.50
2023-03-24T07:33:01.306Z,2.97
2023-03-24T07:37:02.413Z,3.70
2023-03-24T07:41:03.600Z,4.00
2023-03-24T07:45:08.227Z,3.43
2023-03-24T07:49:18.655Z,3.33
2023-03-24T07:53:14.731Z,3.80
2023-03-24T07:57:16.062Z,5.00
2023-03-24T08:01:17.360Z,4.77
2023-03-24T08:05:21.135Z,5.40
2023-03-24T08:09:24.323Z,5.07
2023-03-24T08:13:25.685Z,4.43
2023-03-24T08:17:26.769Z,5.93
2023-03-24T08:21:27.977Z,4.80
2023-03-24T08:25:29.244Z,5.30
2023-03-24T08:29:30.404Z,5.07
2023-03-24T08:33:31.579Z,5.33
2023-03-24T08:37:32.766Z,5.43
2023-03-24T08:41:36.822Z,5.00
2023-03-24T08:45:38.186Z,4.60
2023-03-24T08:49:39.901Z,6.40
2023-03-24T08:53:41.856Z,5.40
2023-03-24T08:57:42.938Z,6.10
2023-03-24T09:01:44.388Z,5.83
2023-03-24T09:05:45.850Z,5.60
2023-03-24T09:09:47.006Z,5.63
2023-03-24T09:13:48.664Z,6.10
2023-03-24T09:17:49.872Z,5.70
2023-03-24T09:21:51.062Z,6.77
2023-03-24T09:25:53.117Z,6.33
2023-03-24T09:29:54.362Z,6.73
2023-03-24T09:33:55.835Z,6.90
2023-03-24T09:37:57.262Z,7.50
2023-03-24T09:41:58.554Z,8.27
2023-03-24T09:46:03.303Z,8.23
2023-03-24T09:50:26.105Z,6.30
2023-03-24T09:54:51.156Z,5.20
2023-03-24T09:59:05.408Z,5.27
2023-03-24T10:03:22.188Z,4.87
2023-03-24T10:07:36.400Z,4.47
2023-03-24T10:12:15.268Z,3.80
2023-03-24T10:16:29.048Z,3.70
2023-03-24T10:20:37.307Z,1.90
2023-03-24T10:24:54.888Z,2.63
2023-03-24T10:29:16.882Z,1.40
2023-03-24T10:33:18.311Z,1.90
2023-03-24T10:37:20.561Z,1.40
2023-03-24T10:41:25.461Z,1.37
2023-03-24T10:45:32.942Z,1.80
2023-03-24T10:49:34.407Z,1.50
2023-03-24T10:53:39.825Z,1.17
2023-03-24T10:57:45.504Z,1.00
2023-03-24T11:01:47.002Z,1.20
2023-03-24T11:05:49.919Z,1.70
2023-03-24T11:10:04.360Z,1.40
2023-03-24T11:14:09.673Z,1.33
2023-03-24T11:18:15.669Z,1.43
2023-03-24T11:22:18.714Z,1.00
2023-03-24T11:26:22.607Z,0.90
2023-03-24T11:30:26.968Z,0.97
2023-03-24T11:34:33.845Z,1.30
2023-03-24T11:38:35.492Z,1.00
2023-03-24T11:42:53.044Z,0.90
2023-03-24T11:47:01.276Z,1.20
2023-03-24T11:51:04.996Z,1.20
2023-03-24T11:55:38.251Z,0.97
2023-03-24T11:59:59.441Z,1.10
2023-03-24T12:04:29.220Z,1.47
2023-03-24T12:08:49.788Z,1.60
2023-03-24T12:13:07.148Z,1.40
2023-03-24T12:17:15.464Z,1.33
2023-03-24T12:21:29.488Z,1.50
2023-03-24T12:26:06.810Z,1.60
2023-03-24T12:30:27.275Z,1.27
2023-03-24T12:34:50.104Z,2.10
2023-03-24T12:39:04.541Z,1.67
2023-03-24T12:43:15.849Z,2.90
2023-03-24T12:47:37.803Z,1.77
2023-03-24T12:51:44.134Z,1.57
2023-03-24T12:55:52.223Z,1.20
2023-03-24T12:59:57.316Z,3.33
2023-03-24T13:04:04.572Z,1.23
2023-03-24T13:08:23.518Z,1.30
2023-03-24T13:12:34.081Z,1.40
2023-03-24T13:16:40.148Z,1.50
2023-03-24T13:20:51.040Z,1.43
2023-03-24T13:24:55.191Z,1.50
2023-03-24T13:29:00.548Z,1.40
2023-03-24T13:33:11.725Z,1.63
2023-03-24T13:37:16.486Z,1.57
2023-03-24T13:41:22.589Z,2.23
2023-03-24T13:45:33.429Z,1.70
2023-03-24T13:49:35.175Z,1.83
2023-03-24T13:53:40.031Z,1.80
2023-03-24T13:57:44.053Z,1.90
2023-03-24T14:01:49.238Z,3.10
2023-03-24T14:06:07.584Z,2.27
2023-03-24T14:10:21.386Z,1.97
2023-03-24T14:14:25.397Z,2.20
2023-03-24T14:18:30.720Z,1.50
2023-03-24T14:22:33.958Z,1.40
2023-03-24T14:26:35.391Z,1.70
2023-03-24T14:30:38.753Z,1.97
2023-03-24T14:34:45.608Z,1.90
2023-03-24T14:38:47.010Z,1.50
2023-03-24T14:42:52.402Z,1.77
2023-03-24T14:46:57.445Z,1.73
2023-03-24T14:51:02.760Z,1.50
2023-03-24T14:55:08.156Z,1.80
2023-03-24T14:59:21.540Z,2.13
2023-03-24T15:03:29.389Z,1.17
2023-03-24T15:07:30.761Z,1.73
2023-03-24T15:11:35.346Z,1.00
2023-03-24T15:15:37.165Z,2.03
2023-03-24T15:19:38.499Z,1.33
2023-03-24T15:23:39.669Z,1.23
2023-03-24T15:27:43.010Z,1.30
2023-03-24T15:31:44.526Z,1.40
2023-03-24T15:35:46.251Z,1.60
2023-03-24T15:39:55.396Z,1.70
2023-03-24T15:43:56.093Z,1.93
2023-03-24T15:47:59.955Z,1.43
2023-03-24T15:52:06.065Z,1.70
2023-03-24T15:56:26.017Z,1.90
2023-03-24T16:00:34.354Z,1.30
2023-03-24T16:04:37.466Z,2.03
2023-03-24T16:08:42.441Z,1.40
2023-03-24T16:12:43.697Z,1.30
2023-03-24T16:16:45.245Z,1.60
2023-03-24T16:20:49.103Z,1.43
2023-03-24T16:24:50.533Z,1.93
2023-03-24T16:28:53.114Z,1.27
2023-03-24T16:32:54.301Z,1.70
2023-03-24T16:36:55.929Z,1.80
2023-03-24T16:40:57.110Z,1.70
2023-03-24T16:44:58.308Z,1.43
2023-03-24T16:49:01.126Z,1.40
2023-03-24T16:53:04.115Z,1.40
2023-03-24T16:57:06.996Z,1.47
2023-03-24T17:01:20.169Z,1.90
2023-03-24T17:05:27.726Z,1.57
2023-03-24T17:09:30.562Z,2.03
2023-03-24T17:13:33.227Z,1.60
2023-03-24T17:17:34.457Z,2.30
2023-03-24T17:21:46.381Z,1.90
2023-03-24T17:25:48.133Z,2.30
2023-03-24T17:29:49.607Z,1.97
2023-03-24T17:33:51.752Z,1.93
2023-03-24T17:37:53.069Z,1.77
2023-03-24T17:41:56.165Z,3.40
2023-03-24T17:46:00.639Z,1.60
2023-03-24T17:50:03.730Z,2.20
2023-03-24T17:54:04.994Z,1.80
2023-03-24T17:58:06.148Z,1.60
2023-03-24T18:02:10.394Z,1.97
2023-03-24T18:06:14.849Z,1.90
2023-03-24T18:10:16.124Z,2.83
2023-03-24T18:14:17.279Z,2.20
2023-03-24T18:18:18.460Z,2.40
2023-03-24T18:22:19.744Z,1.60
2023-03-24T18:26:21.788Z,1.93
2023-03-24T18:30:23.097Z,1.67
2023-03-24T18:34:24.312Z,2.50
2023-03-24T18:38:25.580Z,1.80
2023-03-24T18:42:27.457Z,2.90
2023-03-24T18:46:29.406Z,1.50
2023-03-24T18:50:33.343Z,1.90
2023-03-24T18:54:34.872Z,1.80
2023-03-24T18:58:39.870Z,1.50
2023-03-24T19:02:41.106Z,1.40
2023-03-24T19:06:43.636Z,1.90
2023-03-24T19:10:44.986Z,1.67
2023-03-24T19:14:46.178Z,1.80
2023-03-24T19:18:47.641Z,1.90
2023-03-24T19:22:48.814Z,1.10
2023-03-24T19:26:49.975Z,2.30
2023-03-24T19:30:52.611Z,2.93
2023-03-24T19:34:53.720Z,2.77
2023-03-24T19:38:55.081Z,2.33
2023-03-24T19:42:56.653Z,2.20
2023-03-24T19:46:57.819Z,2.07
2023-03-24T19:50:58.983Z,1.70
2023-03-24T19:55:00.227Z,1.80
2023-03-24T19:59:01.410Z,1.43
2023-03-24T20:03:02.660Z,1.60
2023-03-24T20:07:03.815Z,3.10
2023-03-24T20:11:10.638Z,1.70
2023-03-24T20:15:12.064Z,3.80
2023-03-24T20:19:13.257Z,2.87
2023-03-24T20:23:14.887Z,2.10
2023-03-24T20:27:19.228Z,1.60
2023-03-24T20:31:20.614Z,1.10
2023-03-24T20:35:22.477Z,1.40
2023-03-24T20:39:23.711Z,1.80
2023-03-24T20:43:25.092Z,1.33
2023-03-24T20:47:26.384Z,1.47
2023-03-24T20:51:28.517Z,1.10
2023-03-24T20:55:29.690Z,1.50
2023-03-24T20:59:31.244Z,2.00
2023-03-24T21:03:32.433Z,1.80
2023-03-24T21:07:35.580Z,1.77
2023-03-24T21:11:37.126Z,1.20
2023-03-24T21:15:44.324Z,1.47
2023-03-24T21:19:46.524Z,1.33
2023-03-24T21:23:48.099Z,1.40
2023-03-24T21:27:49.654Z,1.20
2023-03-24T21:31:50.940Z,1.57
2023-03-24T21:35:54.817Z,1.13
2023-03-24T21:39:56.374Z,1.50
2023-03-24T21:43:59.460Z,1.33
2023-03-24T21:48:03.475Z,1.47
2023-03-24T21:52:04.981Z,1.20
2023-03-24T21:56:06.722Z,1.93
2023-03-24T22:00:13.205Z,2.23
2023-03-24T22:04:16.979Z,1.57
2023-03-24T22:08:20.071Z,2.90
2023-03-24T22:12:21.358Z,2.60
2023-03-24T22:16:22.636Z,2.60
2023-03-24T22:20:23.852Z,2.70
2023-03-24T22:24:25.762Z,3.27
2023-03-24T22:28:28.466Z,2.20
2023-03-24T22:32:29.892Z,2.80
2023-03-24T22:36:31.116Z,2.43
2023-03-24T22:40:33.260Z,2.43
2023-03-24T22:44:34.540Z,1.07
2023-03-24T22:48:37.858Z,1.20
2023-03-24T22:52:39.113Z,1.30
2023-03-24T22:56:40.506Z,1.03
2023-03-24T23:00:43.488Z,1.00
2023-03-24T23:04:44.940Z,1.10
2023-03-24T23:08:46.335Z,1.13
2023-03-24T23:12:49.451Z,0.70
2023-03-24T23:16:51.231Z,0.87
2023-03-24T23:21:01.808Z,0.77
2023-03-24T23:25:03.400Z,1.30
2023-03-24T23:29:04.666Z,1.33
2023-03-24T23:33:05.933Z,1.10
2023-03-24T23:37:07.259Z,1.00
2023-03-24T23:41:08.554Z,1.00
2023-03-24T23:45:13.595Z,0.90
2023-03-24T23:49:14.987Z,0.77
2023-03-24T23:53:16.159Z,0.80
2023-03-24T23:57:17.418Z,0.93
